sensor_id;sensor_type;location;lat;lon;timestamp;P1;durP1;ratioP1;P2;durP2;ratioP2
77457;SDS011;66541;49.346;8.648;2023-04-15T00:02:14;4.97;;;1.05;;
77457;SDS011;66541;49.346;8.648;2023-04-15T00:04:40;8.40;;;1.85;;
77457;SDS011;66541;49.346;8.648;2023-04-15T00:07:05;6.57;;;1.42;;
77457;SDS011;66541;49.346;8.648;2023-04-15T00:09:31;7.07;;;1.48;;
77457;SDS011;66541;49.346;8.648;2023-04-15T00:11:56;5.57;;;1.10;;
77457;SDS011;66541;49.346;8.648;2023-04-15T00:14:22;5.90;;;1.48;;
77457;SDS011;66541;49.346;8.648;2023-04-15T00:16:50;6.93;;;1.63;;
77457;SDS011;66541;49.346;8.648;2023-04-15T00:19:20;5.97;;;1.23;;
77457;SDS011;66541;49.346;8.648;2023-04-15T00:21:45;5.38;;;1.17;;
77457;SDS011;66541;49.346;8.648;2023-04-15T00:24:11;7.25;;;1.52;;
77457;SDS011;66541;49.346;8.648;2023-04-15T00:26:37;6.65;;;1.60;;
77457;SDS011;66541;49.346;8.648;2023-04-15T00:29:02;8.43;;;1.65;;
77457;SDS011;66541;49.346;8.648;2023-04-15T00:31:28;7.30;;;1.70;;
77457;SDS011;66541;49.346;8.648;2023-04-15T00:33:54;7.88;;;1.52;;
77457;SDS011;66541;49.346;8.648;2023-04-15T00:36:19;6.72;;;1.60;;
77457;SDS011;66541;49.346;8.648;2023-04-15T00:38:45;6.20;;;1.63;;
77457;SDS011;66541;49.346;8.648;2023-04-15T00:41:10;7.60;;;1.42;;
77457;SDS011;66541;49.346;8.648;2023-04-15T00:43:36;7.97;;;1.52;;
77457;SDS011;66541;49.346;8.648;2023-04-15T00:46:03;7.03;;;1.33;;
77457;SDS011;66541;49.346;8.648;2023-04-15T00:48:28;8.07;;;1.25;;
77457;SDS011;66541;49.346;8.648;2023-04-15T00:50:54;7.03;;;1.50;;
77457;SDS011;66541;49.346;8.648;2023-04-15T00:53:19;6.85;;;1.48;;
77457;SDS011;66541;49.346;8.648;2023-04-15T00:55:44;7.13;;;1.60;;
77457;SDS011;66541;49.346;8.648;2023-04-15T00:58:10;7.75;;;1.75;;
77457;SDS011;66541;49.346;8.648;2023-04-15T01:00:35;5.90;;;1.27;;
77457;SDS011;66541;49.346;8.648;2023-04-15T01:03:01;7.22;;;1.35;;
77457;SDS011;66541;49.346;8.648;2023-04-15T01:05:27;5.55;;;1.15;;
77457;SDS011;66541;49.346;8.648;2023-04-15T01:07:52;10.00;;;1.95;;
77457;SDS011;66541;49.346;8.648;2023-04-15T01:10:17;7.03;;;1.38;;
77457;SDS011;66541;49.346;8.648;2023-04-15T01:12:43;5.88;;;1.55;;
77457;SDS011;66541;49.346;8.648;2023-04-15T01:15:08;5.95;;;1.42;;
77457;SDS011;66541;49.346;8.648;2023-04-15T01:17:35;5.38;;;1.20;;
77457;SDS011;66541;49.346;8.648;2023-04-15T01:20:00;7.13;;;1.52;;
77457;SDS011;66541;49.346;8.648;2023-04-15T01:22:26;6.60;;;1.85;;
77457;SDS011;66541;49.346;8.648;2023-04-15T01:24:58;7.13;;;1.48;;
77457;SDS011;66541;49.346;8.648;2023-04-15T01:27:26;7.47;;;1.52;;
77457;SDS011;66541;49.346;8.648;2023-04-15T01:29:51;6.45;;;1.52;;
77457;SDS011;66541;49.346;8.648;2023-04-15T01:32:17;6.53;;;1.60;;
77457;SDS011;66541;49.346;8.648;2023-04-15T01:34:43;6.50;;;1.48;;
77457;SDS011;66541;49.346;8.648;2023-04-15T01:37:08;8.30;;;1.60;;
77457;SDS011;66541;49.346;8.648;2023-04-15T01:39:33;6.95;;;1.65;;
77457;SDS011;66541;49.346;8.648;2023-04-15T01:41:59;7.05;;;1.65;;
77457;SDS011;66541;49.346;8.648;2023-04-15T01:44:24;7.45;;;1.67;;
77457;SDS011;66541;49.346;8.648;2023-04-15T01:46:50;7.03;;;2.00;;
77457;SDS011;66541;49.346;8.648;2023-04-15T01:49:15;7.38;;;1.77;;
77457;SDS011;66541;49.346;8.648;2023-04-15T01:51:40;7.60;;;1.75;;
77457;SDS011;66541;49.346;8.648;2023-04-15T01:54:06;9.30;;;1.70;;
77457;SDS011;66541;49.346;8.648;2023-04-15T01:56:31;8.52;;;1.92;;
77457;SDS011;66541;49.346;8.648;2023-04-15T01:58:57;11.75;;;1.95;;
77457;SDS011;66541;49.346;8.648;2023-04-15T02:01:22;6.93;;;1.75;;
77457;SDS011;66541;49.346;8.648;2023-04-15T02:03:48;9.73;;;1.92;;
77457;SDS011;66541;49.346;8.648;2023-04-15T02:06:13;8.43;;;1.90;;
77457;SDS011;66541;49.346;8.648;2023-04-15T02:08:38;10.65;;;2.15;;
77457;SDS011;66541;49.346;8.648;2023-04-15T02:11:03;7.65;;;2.10;;
77457;SDS011;66541;49.346;8.648;2023-04-15T02:13:29;7.13;;;1.80;;
77457;SDS011;66541;49.346;8.648;2023-04-15T02:15:54;6.28;;;1.60;;
77457;SDS011;66541;49.346;8.648;2023-04-15T02:18:20;7.18;;;1.60;;
77457;SDS011;66541;49.346;8.648;2023-04-15T02:20:46;8.25;;;1.90;;
77457;SDS011;66541;49.346;8.648;2023-04-15T02:23:12;6.32;;;1.50;;
77457;SDS011;66541;49.346;8.648;2023-04-15T02:25:37;7.13;;;1.67;;
77457;SDS011;66541;49.346;8.648;2023-04-15T02:28:03;8.57;;;1.80;;
77457;SDS011;66541;49.346;8.648;2023-04-15T02:30:30;7.28;;;1.50;;
77457;SDS011;66541;49.346;8.648;2023-04-15T02:32:55;6.55;;;1.60;;
77457;SDS011;66541;49.346;8.648;2023-04-15T02:35:21;11.90;;;1.92;;
77457;SDS011;66541;49.346;8.648;2023-04-15T02:37:46;9.23;;;1.77;;
77457;SDS011;66541;49.346;8.648;2023-04-15T02:40:11;6.53;;;1.40;;
77457;SDS011;66541;49.346;8.648;2023-04-15T02:42:40;7.25;;;1.75;;
77457;SDS011;66541;49.346;8.648;2023-04-15T02:45:06;7.28;;;2.08;;
77457;SDS011;66541;49.346;8.648;2023-04-15T02:47:33;5.65;;;1.55;;
77457;SDS011;66541;49.346;8.648;2023-04-15T02:49:58;9.68;;;1.50;;
77457;SDS011;66541;49.346;8.648;2023-04-15T02:52:25;7.78;;;2.00;;
77457;SDS011;66541;49.346;8.648;2023-04-15T02:54:53;9.40;;;1.90;;
77457;SDS011;66541;49.346;8.648;2023-04-15T02:57:24;7.10;;;1.60;;
77457;SDS011;66541;49.346;8.648;2023-04-15T02:59:50;8.77;;;1.80;;
77457;SDS011;66541;49.346;8.648;2023-04-15T03:02:15;6.90;;;1.67;;
77457;SDS011;66541;49.346;8.648;2023-04-15T03:04:40;7.32;;;1.48;;
77457;SDS011;66541;49.346;8.648;2023-04-15T03:07:06;5.63;;;1.50;;
77457;SDS011;66541;49.346;8.648;2023-04-15T03:09:31;7.78;;;1.65;;
77457;SDS011;66541;49.346;8.648;2023-04-15T03:11:57;6.88;;;1.50;;
77457;SDS011;66541;49.346;8.648;2023-04-15T03:14:22;7.53;;;1.85;;
77457;SDS011;66541;49.346;8.648;2023-04-15T03:16:47;7.40;;;2.00;;
77457;SDS011;66541;49.346;8.648;2023-04-15T03:19:14;7.45;;;1.80;;
77457;SDS011;66541;49.346;8.648;2023-04-15T03:21:39;7.68;;;1.38;;
77457;SDS011;66541;49.346;8.648;2023-04-15T03:24:05;5.80;;;1.65;;
77457;SDS011;66541;49.346;8.648;2023-04-15T03:26:30;8.95;;;1.98;;
77457;SDS011;66541;49.346;8.648;2023-04-15T03:28:56;7.75;;;1.55;;
77457;SDS011;66541;49.346;8.648;2023-04-15T03:31:21;6.70;;;1.58;;
77457;SDS011;66541;49.346;8.648;2023-04-15T03:33:47;5.82;;;1.33;;
77457;SDS011;66541;49.346;8.648;2023-04-15T03:36:12;7.97;;;1.77;;
77457;SDS011;66541;49.346;8.648;2023-04-15T03:38:37;6.95;;;1.48;;
77457;SDS011;66541;49.346;8.648;2023-04-15T03:41:03;6.82;;;1.60;;
77457;SDS011;66541;49.346;8.648;2023-04-15T03:43:29;6.07;;;1.55;;
77457;SDS011;66541;49.346;8.648;2023-04-15T03:45:54;9.07;;;1.88;;
77457;SDS011;66541;49.346;8.648;2023-04-15T03:48:19;5.45;;;1.38;;
77457;SDS011;66541;49.346;8.648;2023-04-15T03:50:45;5.82;;;1.40;;
77457;SDS011;66541;49.346;8.648;2023-04-15T03:53:10;6.40;;;1.50;;
77457;SDS011;66541;49.346;8.648;2023-04-15T03:55:35;6.70;;;1.73;;
77457;SDS011;66541;49.346;8.648;2023-04-15T03:58:01;5.50;;;1.45;;
77457;SDS011;66541;49.346;8.648;2023-04-15T04:00:26;6.30;;;1.73;;
77457;SDS011;66541;49.346;8.648;2023-04-15T04:02:51;7.22;;;1.60;;
77457;SDS011;66541;49.346;8.648;2023-04-15T04:05:16;6.15;;;1.58;;
77457;SDS011;66541;49.346;8.648;2023-04-15T04:07:42;7.13;;;1.60;;
77457;SDS011;66541;49.346;8.648;2023-04-15T04:10:07;6.88;;;1.40;;
77457;SDS011;66541;49.346;8.648;2023-04-15T04:12:33;6.88;;;1.42;;
77457;SDS011;66541;49.346;8.648;2023-04-15T04:14:58;6.05;;;1.55;;
77457;SDS011;66541;49.346;8.648;2023-04-15T04:17:23;6.30;;;1.42;;
77457;SDS011;66541;49.346;8.648;2023-04-15T04:19:48;9.00;;;1.80;;
77457;SDS011;66541;49.346;8.648;2023-04-15T04:22:14;8.10;;;1.73;;
77457;SDS011;66541;49.346;8.648;2023-04-15T04:24:39;7.65;;;1.35;;
77457;SDS011;66541;49.346;8.648;2023-04-15T04:27:05;5.20;;;1.17;;
77457;SDS011;66541;49.346;8.648;2023-04-15T04:29:30;5.95;;;1.67;;
77457;SDS011;66541;49.346;8.648;2023-04-15T04:31:55;6.20;;;1.50;;
77457;SDS011;66541;49.346;8.648;2023-04-15T04:34:21;7.63;;;1.38;;
77457;SDS011;66541;49.346;8.648;2023-04-15T04:36:46;6.72;;;1.05;;
77457;SDS011;66541;49.346;8.648;2023-04-15T04:39:11;5.78;;;1.40;;
77457;SDS011;66541;49.346;8.648;2023-04-15T04:41:36;6.50;;;1.55;;
77457;SDS011;66541;49.346;8.648;2023-04-15T04:44:02;6.15;;;1.15;;
77457;SDS011;66541;49.346;8.648;2023-04-15T04:46:27;5.20;;;0.90;;
77457;SDS011;66541;49.346;8.648;2023-04-15T04:48:52;5.05;;;1.13;;
77457;SDS011;66541;49.346;8.648;2023-04-15T04:51:18;5.85;;;1.40;;
77457;SDS011;66541;49.346;8.648;2023-04-15T04:53:43;5.72;;;1.42;;
77457;SDS011;66541;49.346;8.648;2023-04-15T04:56:08;5.22;;;1.13;;
77457;SDS011;66541;49.346;8.648;2023-04-15T04:58:34;5.10;;;1.17;;
77457;SDS011;66541;49.346;8.648;2023-04-15T05:00:59;5.45;;;1.17;;
77457;SDS011;66541;49.346;8.648;2023-04-15T05:03:25;6.13;;;1.45;;
77457;SDS011;66541;49.346;8.648;2023-04-15T05:05:51;7.80;;;2.55;;
77457;SDS011;66541;49.346;8.648;2023-04-15T05:08:16;7.43;;;2.10;;
77457;SDS011;66541;49.346;8.648;2023-04-15T05:10:42;7.65;;;2.28;;
77457;SDS011;66541;49.346;8.648;2023-04-15T05:13:07;8.07;;;2.50;;
77457;SDS011;66541;49.346;8.648;2023-04-15T05:15:32;6.93;;;2.03;;
77457;SDS011;66541;49.346;8.648;2023-04-15T05:17:59;9.27;;;2.40;;
77457;SDS011;66541;49.346;8.648;2023-04-15T05:20:24;10.70;;;2.40;;
77457;SDS011;66541;49.346;8.648;2023-04-15T05:22:49;7.60;;;2.00;;
77457;SDS011;66541;49.346;8.648;2023-04-15T05:25:15;7.35;;;2.03;;
77457;SDS011;66541;49.346;8.648;2023-04-15T05:27:40;6.60;;;1.77;;
77457;SDS011;66541;49.346;8.648;2023-04-15T05:30:06;7.50;;;1.88;;
77457;SDS011;66541;49.346;8.648;2023-04-15T05:32:32;6.07;;;1.70;;
77457;SDS011;66541;49.346;8.648;2023-04-15T05:34:58;7.15;;;1.70;;
77457;SDS011;66541;49.346;8.648;2023-04-15T05:37:23;6.63;;;1.85;;
77457;SDS011;66541;49.346;8.648;2023-04-15T05:39:48;5.72;;;1.25;;
77457;SDS011;66541;49.346;8.648;2023-04-15T05:42:14;6.60;;;1.70;;
77457;SDS011;66541;49.346;8.648;2023-04-15T05:44:39;4.90;;;1.48;;
77457;SDS011;66541;49.346;8.648;2023-04-15T05:47:05;11.02;;;1.60;;
77457;SDS011;66541;49.346;8.648;2023-04-15T05:49:31;6.28;;;1.50;;
77457;SDS011;66541;49.346;8.648;2023-04-15T05:51:56;8.43;;;1.63;;
77457;SDS011;66541;49.346;8.648;2023-04-15T05:54:21;5.32;;;1.35;;
77457;SDS011;66541;49.346;8.648;2023-04-15T05:56:47;7.00;;;1.40;;
77457;SDS011;66541;49.346;8.648;2023-04-15T05:59:13;6.38;;;1.60;;
77457;SDS011;66541;49.346;8.648;2023-04-15T06:01:38;7.85;;;1.80;;
77457;SDS011;66541;49.346;8.648;2023-04-15T06:04:04;7.90;;;1.90;;
77457;SDS011;66541;49.346;8.648;2023-04-15T06:06:29;5.60;;;1.33;;
77457;SDS011;66541;49.346;8.648;2023-04-15T06:08:56;6.95;;;1.60;;
77457;SDS011;66541;49.346;8.648;2023-04-15T06:11:21;5.45;;;1.52;;
77457;SDS011;66541;49.346;8.648;2023-04-15T06:13:47;8.68;;;2.00;;
77457;SDS011;66541;49.346;8.648;2023-04-15T06:16:12;8.35;;;2.17;;
77457;SDS011;66541;49.346;8.648;2023-04-15T06:18:37;5.93;;;1.63;;
77457;SDS011;66541;49.346;8.648;2023-04-15T06:21:03;8.18;;;1.92;;
77457;SDS011;66541;49.346;8.648;2023-04-15T06:23:28;6.50;;;1.95;;
77457;SDS011;66541;49.346;8.648;2023-04-15T06:25:53;7.18;;;1.80;;
77457;SDS011;66541;49.346;8.648;2023-04-15T06:28:19;8.40;;;2.30;;
77457;SDS011;66541;49.346;8.648;2023-04-15T06:30:44;6.95;;;1.95;;
77457;SDS011;66541;49.346;8.648;2023-04-15T06:33:09;10.75;;;2.70;;
77457;SDS011;66541;49.346;8.648;2023-04-15T06:35:35;6.82;;;2.13;;
77457;SDS011;66541;49.346;8.648;2023-04-15T06:38:00;9.75;;;2.70;;
77457;SDS011;66541;49.346;8.648;2023-04-15T06:40:25;7.43;;;1.98;;
77457;SDS011;66541;49.346;8.648;2023-04-15T06:42:51;9.35;;;2.47;;
77457;SDS011;66541;49.346;8.648;2023-04-15T06:45:17;7.97;;;2.03;;
77457;SDS011;66541;49.346;8.648;2023-04-15T06:47:42;6.95;;;2.00;;
77457;SDS011;66541;49.346;8.648;2023-04-15T06:50:07;7.43;;;1.90;;
77457;SDS011;66541;49.346;8.648;2023-04-15T06:52:34;5.50;;;1.63;;
77457;SDS011;66541;49.346;8.648;2023-04-15T06:55:00;7.65;;;2.00;;
77457;SDS011;66541;49.346;8.648;2023-04-15T06:57:26;8.45;;;1.80;;
77457;SDS011;66541;49.346;8.648;2023-04-15T06:59:52;5.78;;;1.77;;
77457;SDS011;66541;49.346;8.648;2023-04-15T07:02:18;7.35;;;1.85;;
77457;SDS011;66541;49.346;8.648;2023-04-15T07:04:43;7.85;;;1.73;;
77457;SDS011;66541;49.346;8.648;2023-04-15T07:07:09;7.18;;;2.00;;
77457;SDS011;66541;49.346;8.648;2023-04-15T07:09:34;7.65;;;1.55;;
77457;SDS011;66541;49.346;8.648;2023-04-15T07:11:59;9.80;;;1.63;;
77457;SDS011;66541;49.346;8.648;2023-04-15T07:14:25;8.95;;;1.88;;
77457;SDS011;66541;49.346;8.648;2023-04-15T07:16:50;9.20;;;2.08;;
77457;SDS011;66541;49.346;8.648;2023-04-15T07:19:15;7.50;;;1.83;;
77457;SDS011;66541;49.346;8.648;2023-04-15T07:21:41;7.45;;;1.98;;
77457;SDS011;66541;49.346;8.648;2023-04-15T07:24:06;8.52;;;1.90;;
77457;SDS011;66541;49.346;8.648;2023-04-15T07:26:32;7.32;;;1.90;;
77457;SDS011;66541;49.346;8.648;2023-04-15T07:28:57;10.35;;;2.08;;
77457;SDS011;66541;49.346;8.648;2023-04-15T07:31:22;6.40;;;1.77;;
77457;SDS011;66541;49.346;8.648;2023-04-15T07:33:47;8.15;;;2.22;;
77457;SDS011;66541;49.346;8.648;2023-04-15T07:36:13;6.95;;;1.80;;
77457;SDS011;66541;49.346;8.648;2023-04-15T07:38:39;6.63;;;2.00;;
77457;SDS011;66541;49.346;8.648;2023-04-15T07:41:04;6.50;;;1.92;;
77457;SDS011;66541;49.346;8.648;2023-04-15T07:43:29;8.10;;;2.50;;
77457;SDS011;66541;49.346;8.648;2023-04-15T07:45:55;6.60;;;1.85;;
77457;SDS011;66541;49.346;8.648;2023-04-15T07:48:20;7.68;;;2.13;;
77457;SDS011;66541;49.346;8.648;2023-04-15T07:50:45;7.95;;;1.90;;
77457;SDS011;66541;49.346;8.648;2023-04-15T07:53:11;8.30;;;2.47;;
77457;SDS011;66541;49.346;8.648;2023-04-15T07:55:36;7.47;;;2.65;;
77457;SDS011;66541;49.346;8.648;2023-04-15T07:58:01;9.40;;;2.25;;
77457;SDS011;66541;49.346;8.648;2023-04-15T08:00:27;7.32;;;2.47;;
77457;SDS011;66541;49.346;8.648;2023-04-15T08:02:52;8.13;;;2.25;;
77457;SDS011;66541;49.346;8.648;2023-04-15T08:05:18;7.45;;;2.40;;
77457;SDS011;66541;49.346;8.648;2023-04-15T08:07:43;9.10;;;2.58;;
77457;SDS011;66541;49.346;8.648;2023-04-15T08:10:09;7.88;;;2.20;;
77457;SDS011;66541;49.346;8.648;2023-04-15T08:12:35;8.68;;;2.88;;
77457;SDS011;66541;49.346;8.648;2023-04-15T08:15:03;9.90;;;2.22;;
77457;SDS011;66541;49.346;8.648;2023-04-15T08:17:29;8.55;;;2.50;;
77457;SDS011;66541;49.346;8.648;2023-04-15T08:19:54;8.55;;;2.72;;
77457;SDS011;66541;49.346;8.648;2023-04-15T08:22:19;7.93;;;2.63;;
77457;SDS011;66541;49.346;8.648;2023-04-15T08:24:45;7.60;;;2.55;;
77457;SDS011;66541;49.346;8.648;2023-04-15T08:27:10;9.63;;;3.00;;
77457;SDS011;66541;49.346;8.648;2023-04-15T08:29:35;9.48;;;2.85;;
77457;SDS011;66541;49.346;8.648;2023-04-15T08:32:01;8.15;;;2.75;;
77457;SDS011;66541;49.346;8.648;2023-04-15T08:34:26;7.70;;;2.33;;
77457;SDS011;66541;49.346;8.648;2023-04-15T08:36:52;9.00;;;2.50;;
77457;SDS011;66541;49.346;8.648;2023-04-15T08:39:17;7.15;;;2.10;;
77457;SDS011;66541;49.346;8.648;2023-04-15T08:41:46;8.15;;;2.55;;
77457;SDS011;66541;49.346;8.648;2023-04-15T08:44:15;8.48;;;2.33;;
77457;SDS011;66541;49.346;8.648;2023-04-15T08:46:41;8.13;;;2.00;;
77457;SDS011;66541;49.346;8.648;2023-04-15T08:49:10;7.07;;;2.25;;
77457;SDS011;66541;49.346;8.648;2023-04-15T08:51:39;7.75;;;2.65;;
77457;SDS011;66541;49.346;8.648;2023-04-15T08:54:05;7.75;;;2.90;;
77457;SDS011;66541;49.346;8.648;2023-04-15T08:56:34;7.47;;;2.50;;
77457;SDS011;66541;49.346;8.648;2023-04-15T08:59:01;7.47;;;2.45;;
77457;SDS011;66541;49.346;8.648;2023-04-15T09:01:27;11.07;;;3.35;;
77457;SDS011;66541;49.346;8.648;2023-04-15T09:03:52;12.30;;;3.00;;
77457;SDS011;66541;49.346;8.648;2023-04-15T09:06:22;8.35;;;2.40;;
77457;SDS011;66541;49.346;8.648;2023-04-15T09:08:48;8.15;;;2.72;;
77457;SDS011;66541;49.346;8.648;2023-04-15T09:11:14;10.32;;;2.80;;
77457;SDS011;66541;49.346;8.648;2023-04-15T09:13:41;9.77;;;3.53;;
77457;SDS011;66541;49.346;8.648;2023-04-15T09:16:09;9.82;;;2.55;;
77457;SDS011;66541;49.346;8.648;2023-04-15T09:18:35;7.15;;;2.25;;
77457;SDS011;66541;49.346;8.648;2023-04-15T09:21:08;9.27;;;2.88;;
77457;SDS011;66541;49.346;8.648;2023-04-15T09:23:36;10.32;;;2.83;;
77457;SDS011;66541;49.346;8.648;2023-04-15T09:26:02;7.72;;;2.33;;
77457;SDS011;66541;49.346;8.648;2023-04-15T09:28:28;9.27;;;2.53;;
77457;SDS011;66541;49.346;8.648;2023-04-15T09:30:57;8.52;;;2.53;;
77457;SDS011;66541;49.346;8.648;2023-04-15T09:33:23;8.30;;;2.50;;
77457;SDS011;66541;49.346;8.648;2023-04-15T09:36:03;9.23;;;2.85;;
77457;SDS011;66541;49.346;8.648;2023-04-15T09:38:29;8.68;;;2.25;;
77457;SDS011;66541;49.346;8.648;2023-04-15T09:40:55;8.50;;;2.45;;
77457;SDS011;66541;49.346;8.648;2023-04-15T09:43:21;10.02;;;2.15;;
77457;SDS011;66541;49.346;8.648;2023-04-15T09:45:47;7.88;;;2.42;;
77457;SDS011;66541;49.346;8.648;2023-04-15T09:48:18;8.38;;;2.22;;
77457;SDS011;66541;49.346;8.648;2023-04-15T09:50:56;9.80;;;2.10;;
77457;SDS011;66541;49.346;8.648;2023-04-15T09:53:23;7.78;;;2.08;;
77457;SDS011;66541;49.346;8.648;2023-04-15T09:55:55;7.82;;;2.22;;
77457;SDS011;66541;49.346;8.648;2023-04-15T09:58:29;6.93;;;1.58;;
77457;SDS011;66541;49.346;8.648;2023-04-15T10:00:56;6.68;;;1.85;;
77457;SDS011;66541;49.346;8.648;2023-04-15T10:05:51;8.15;;;2.13;;
77457;SDS011;66541;49.346;8.648;2023-04-15T10:08:18;6.32;;;1.90;;
77457;SDS011;66541;49.346;8.648;2023-04-15T10:10:46;5.93;;;1.60;;
77457;SDS011;66541;49.346;8.648;2023-04-15T10:13:13;6.50;;;1.60;;
77457;SDS011;66541;49.346;8.648;2023-04-15T10:15:39;7.03;;;2.10;;
77457;SDS011;66541;49.346;8.648;2023-04-15T10:18:07;8.02;;;1.48;;
77457;SDS011;66541;49.346;8.648;2023-04-15T10:20:33;7.82;;;1.50;;
77457;SDS011;66541;49.346;8.648;2023-04-15T10:22:59;8.30;;;1.40;;
77457;SDS011;66541;49.346;8.648;2023-04-15T10:25:25;7.75;;;1.70;;
77457;SDS011;66541;49.346;8.648;2023-04-15T10:27:51;7.38;;;2.00;;
77457;SDS011;66541;49.346;8.648;2023-04-15T10:30:16;8.55;;;2.28;;
77457;SDS011;66541;49.346;8.648;2023-04-15T10:32:42;7.45;;;1.77;;
77457;SDS011;66541;49.346;8.648;2023-04-15T10:35:08;7.63;;;2.00;;
77457;SDS011;66541;49.346;8.648;2023-04-15T10:37:35;8.07;;;2.40;;
77457;SDS011;66541;49.346;8.648;2023-04-15T10:40:44;7.30;;;2.45;;
77457;SDS011;66541;49.346;8.648;2023-04-15T10:42:57;9.82;;;2.78;;
77457;SDS011;66541;49.346;8.648;2023-04-15T10:45:26;9.57;;;2.75;;
77457;SDS011;66541;49.346;8.648;2023-04-15T10:47:56;7.60;;;2.30;;
77457;SDS011;66541;49.346;8.648;2023-04-15T10:50:24;8.73;;;2.63;;
77457;SDS011;66541;49.346;8.648;2023-04-15T10:52:50;8.57;;;2.38;;
77457;SDS011;66541;49.346;8.648;2023-04-15T10:55:23;6.50;;;2.17;;
77457;SDS011;66541;49.346;8.648;2023-04-15T10:57:52;9.88;;;2.72;;
77457;SDS011;66541;49.346;8.648;2023-04-15T11:00:18;9.43;;;2.25;;
77457;SDS011;66541;49.346;8.648;2023-04-15T11:05:21;9.15;;;1.95;;
77457;SDS011;66541;49.346;8.648;2023-04-15T11:12:45;7.03;;;1.30;;
77457;SDS011;66541;49.346;8.648;2023-04-15T11:15:23;8.57;;;1.40;;
77457;SDS011;66541;49.346;8.648;2023-04-15T11:17:50;5.55;;;1.38;;
77457;SDS011;66541;49.346;8.648;2023-04-15T11:20:15;5.00;;;1.00;;
77457;SDS011;66541;49.346;8.648;2023-04-15T11:22:49;5.80;;;1.15;;
77457;SDS011;66541;49.346;8.648;2023-04-15T11:25:24;7.13;;;1.15;;
77457;SDS011;66541;49.346;8.648;2023-04-15T11:27:53;5.95;;;0.95;;
77457;SDS011;66541;49.346;8.648;2023-04-15T11:30:23;5.50;;;0.98;;
77457;SDS011;66541;49.346;8.648;2023-04-15T11:32:53;4.78;;;1.08;;
77457;SDS011;66541;49.346;8.648;2023-04-15T11:35:21;4.88;;;1.00;;
77457;SDS011;66541;49.346;8.648;2023-04-15T11:37:48;4.78;;;1.02;;
77457;SDS011;66541;49.346;8.648;2023-04-15T11:40:14;4.32;;;0.70;;
77457;SDS011;66541;49.346;8.648;2023-04-15T11:42:41;5.30;;;1.15;;
77457;SDS011;66541;49.346;8.648;2023-04-15T11:45:11;5.93;;;1.02;;
77457;SDS011;66541;49.346;8.648;2023-04-15T11:47:37;5.07;;;0.65;;
77457;SDS011;66541;49.346;8.648;2023-04-15T11:50:16;3.58;;;0.90;;
77457;SDS011;66541;49.346;8.648;2023-04-15T11:52:55;4.72;;;0.70;;
77457;SDS011;66541;49.346;8.648;2023-04-15T11:55:22;4.95;;;1.65;;
77457;SDS011;66541;49.346;8.648;2023-04-15T11:57:49;4.70;;;0.80;;
77457;SDS011;66541;49.346;8.648;2023-04-15T12:00:15;5.57;;;1.17;;
77457;SDS011;66541;49.346;8.648;2023-04-15T12:02:41;4.82;;;1.38;;
77457;SDS011;66541;49.346;8.648;2023-04-15T12:05:07;4.38;;;0.73;;
77457;SDS011;66541;49.346;8.648;2023-04-15T12:07:33;4.25;;;0.90;;
77457;SDS011;66541;49.346;8.648;2023-04-15T12:09:58;6.15;;;3.55;;
77457;SDS011;66541;49.346;8.648;2023-04-15T12:12:27;16.15;;;12.20;;
77457;SDS011;66541;49.346;8.648;2023-04-15T12:14:52;19.27;;;13.35;;
77457;SDS011;66541;49.346;8.648;2023-04-15T12:17:18;33.10;;;26.35;;
77457;SDS011;66541;49.346;8.648;2023-04-15T12:19:43;21.05;;;17.35;;
77457;SDS011;66541;49.346;8.648;2023-04-15T12:22:13;32.67;;;22.50;;
77457;SDS011;66541;49.346;8.648;2023-04-15T12:24:40;4.38;;;1.40;;
77457;SDS011;66541;49.346;8.648;2023-04-15T12:27:09;4.32;;;0.80;;
77457;SDS011;66541;49.346;8.648;2023-04-15T12:29:36;4.32;;;0.68;;
77457;SDS011;66541;49.346;8.648;2023-04-15T12:32:06;4.10;;;1.02;;
77457;SDS011;66541;49.346;8.648;2023-04-15T12:34:38;4.85;;;1.50;;
77457;SDS011;66541;49.346;8.648;2023-04-15T12:37:05;3.97;;;0.75;;
77457;SDS011;66541;49.346;8.648;2023-04-15T12:39:34;5.22;;;0.85;;
77457;SDS011;66541;49.346;8.648;2023-04-15T12:42:00;4.88;;;0.80;;
77457;SDS011;66541;49.346;8.648;2023-04-15T12:44:26;4.57;;;0.85;;
77457;SDS011;66541;49.346;8.648;2023-04-15T12:46:52;3.55;;;0.57;;
77457;SDS011;66541;49.346;8.648;2023-04-15T12:49:17;4.03;;;0.70;;
77457;SDS011;66541;49.346;8.648;2023-04-15T12:51:49;5.40;;;0.90;;
77457;SDS011;66541;49.346;8.648;2023-04-15T12:56:42;16.10;;;1.02;;
77457;SDS011;66541;49.346;8.648;2023-04-15T12:59:10;5.70;;;1.48;;
77457;SDS011;66541;49.346;8.648;2023-04-15T13:01:35;4.57;;;1.27;;
77457;SDS011;66541;49.346;8.648;2023-04-15T13:04:00;4.53;;;0.85;;
77457;SDS011;66541;49.346;8.648;2023-04-15T13:06:26;3.42;;;0.80;;
77457;SDS011;66541;49.346;8.648;2023-04-15T13:08:53;4.38;;;0.70;;
77457;SDS011;66541;49.346;8.648;2023-04-15T13:11:19;4.88;;;0.80;;
77457;SDS011;66541;49.346;8.648;2023-04-15T13:13:45;3.75;;;0.70;;
77457;SDS011;66541;49.346;8.648;2023-04-15T13:16:10;5.70;;;1.33;;
77457;SDS011;66541;49.346;8.648;2023-04-15T13:18:36;4.57;;;1.10;;
77457;SDS011;66541;49.346;8.648;2023-04-15T13:21:01;6.20;;;1.15;;
77457;SDS011;66541;49.346;8.648;2023-04-15T13:23:27;5.47;;;1.20;;
77457;SDS011;66541;49.346;8.648;2023-04-15T13:25:52;4.28;;;0.85;;
77457;SDS011;66541;49.346;8.648;2023-04-15T13:28:17;4.90;;;0.75;;
77457;SDS011;66541;49.346;8.648;2023-04-15T13:30:43;3.80;;;0.88;;
77457;SDS011;66541;49.346;8.648;2023-04-15T13:33:09;3.63;;;0.55;;
77457;SDS011;66541;49.346;8.648;2023-04-15T13:35:35;3.60;;;0.50;;
77457;SDS011;66541;49.346;8.648;2023-04-15T13:38:00;3.58;;;0.30;;
77457;SDS011;66541;49.346;8.648;2023-04-15T13:40:25;2.38;;;0.30;;
77457;SDS011;66541;49.346;8.648;2023-04-15T13:42:51;1.42;;;0.30;;
77457;SDS011;66541;49.346;8.648;2023-04-15T13:45:17;2.88;;;0.30;;
77457;SDS011;66541;49.346;8.648;2023-04-15T13:47:42;2.05;;;0.30;;
77457;SDS011;66541;49.346;8.648;2023-04-15T13:50:08;2.05;;;0.20;;
77457;SDS011;66541;49.346;8.648;2023-04-15T13:52:33;1.63;;;0.30;;
77457;SDS011;66541;49.346;8.648;2023-04-15T13:54:58;2.53;;;0.40;;
77457;SDS011;66541;49.346;8.648;2023-04-15T13:57:24;1.90;;;0.52;;
77457;SDS011;66541;49.346;8.648;2023-04-15T13:59:49;3.28;;;0.40;;
77457;SDS011;66541;49.346;8.648;2023-04-15T14:02:14;3.53;;;0.40;;
77457;SDS011;66541;49.346;8.648;2023-04-15T14:04:40;3.30;;;0.50;;
77457;SDS011;66541;49.346;8.648;2023-04-15T14:07:05;3.35;;;0.60;;
77457;SDS011;66541;49.346;8.648;2023-04-15T14:09:31;2.78;;;0.60;;
77457;SDS011;66541;49.346;8.648;2023-04-15T14:11:56;2.30;;;0.35;;
77457;SDS011;66541;49.346;8.648;2023-04-15T14:14:23;3.10;;;0.40;;
77457;SDS011;66541;49.346;8.648;2023-04-15T14:16:49;1.98;;;0.30;;
77457;SDS011;66541;49.346;8.648;2023-04-15T14:19:14;3.22;;;0.47;;
77457;SDS011;66541;49.346;8.648;2023-04-15T14:21:40;2.15;;;0.30;;
77457;SDS011;66541;49.346;8.648;2023-04-15T14:24:05;2.08;;;0.35;;
77457;SDS011;66541;49.346;8.648;2023-04-15T14:26:30;4.75;;;0.57;;
77457;SDS011;66541;49.346;8.648;2023-04-15T14:28:56;1.98;;;0.40;;
77457;SDS011;66541;49.346;8.648;2023-04-15T14:31:21;3.15;;;0.40;;
77457;SDS011;66541;49.346;8.648;2023-04-15T14:33:46;1.75;;;0.30;;
77457;SDS011;66541;49.346;8.648;2023-04-15T14:36:11;1.63;;;0.30;;
77457;SDS011;66541;49.346;8.648;2023-04-15T14:38:37;3.83;;;0.70;;
77457;SDS011;66541;49.346;8.648;2023-04-15T14:41:04;1.95;;;0.30;;
77457;SDS011;66541;49.346;8.648;2023-04-15T14:43:30;3.03;;;0.55;;
77457;SDS011;66541;49.346;8.648;2023-04-15T14:45:55;3.38;;;0.50;;
77457;SDS011;66541;49.346;8.648;2023-04-15T14:48:20;4.88;;;0.60;;
77457;SDS011;66541;49.346;8.648;2023-04-15T14:50:46;8.02;;;2.50;;
77457;SDS011;66541;49.346;8.648;2023-04-15T14:53:11;9.95;;;2.83;;
77457;SDS011;66541;49.346;8.648;2023-04-15T14:55:36;8.13;;;2.60;;